Terminal Aerodrome Forecast
Issued by NWS

Home | Current Version | Previous Version | Text Only | Print | Product List | Glossary On
Versions: 1 2 3 4 5 6 7 8 9 10 11 12 13 14
324
FTUS45 KRIW 120529
TAFCPR
TAF
KCPR 120529Z 1206/1306 23010KT P6SM BKN110
     FM121900 21010G16KT P6SM SCT110 BKN250
     FM130300 21015KT P6SM BKN250=

USA.gov is the U.S. government's official web portal to all federal, state and local government web resources and services.